Terminal Aerodrome Forecast
Issued by NWS

Current Version | Previous Version | Text Only | Print | Product List | Glossary On
Versions: 1 2 3 4 5 6 7 8 9 10 11 12 13 14 15 16
000
FTUS45 KVEF 282300
TAFEED
TAF
KEED 282338Z 2900/2924 20011KT P6SM SCT100 BKN200
     FM290300 23007KT P6SM FEW100 BKN200
     FM291300 VRB05KT P6SM SCT150
     FM292000 22011KT P6SM SCT150=

USA.gov is the U.S. government's official web portal to all federal, state and local government web resources and services.